createdAt,value
2017-11-25T00:00:46.643Z,1016.19
2017-11-25T00:02:14.119Z,1016.21
2017-11-25T00:03:41.445Z,1016.20
2017-11-25T00:05:08.713Z,1016.22
2017-11-25T00:06:36.052Z,1016.20
2017-11-25T00:08:03.068Z,1016.17
2017-11-25T00:09:30.191Z,1016.23
2017-11-25T00:10:57.574Z,1016.27
2017-11-25T00:12:24.649Z,1016.26
2017-11-25T00:13:52.120Z,1016.23
2017-11-25T00:15:19.322Z,1016.19
2017-11-25T00:16:46.817Z,1016.16
2017-11-25T00:18:13.773Z,1016.11
2017-11-25T00:19:40.809Z,1016.10
2017-11-25T00:21:07.931Z,1016.13
2017-11-25T00:22:35.049Z,1016.15
2017-11-25T00:24:02.274Z,1016.16
2017-11-25T00:25:29.609Z,1016.15
2017-11-25T00:26:56.513Z,1016.15
2017-11-25T00:28:23.860Z,1016.15
2017-11-25T00:29:51.255Z,1016.16
2017-11-25T00:31:18.283Z,1016.18
2017-11-25T00:32:45.612Z,1016.19
2017-11-25T00:34:13.016Z,1016.19
2017-11-25T00:35:40.217Z,1016.20
2017-11-25T00:37:07.506Z,1016.18
2017-11-25T00:38:34.975Z,1016.14
2017-11-25T00:40:01.966Z,1016.11
2017-11-25T00:41:29.272Z,1016.13
2017-11-25T00:42:56.113Z,1016.13
2017-11-25T00:44:23.190Z,1016.14
2017-11-25T00:45:50.391Z,1016.15
2017-11-25T00:47:17.480Z,1016.18
2017-11-25T00:48:44.768Z,1016.19
2017-11-25T00:50:12.077Z,1016.21
2017-11-25T00:51:39.551Z,1016.22
2017-11-25T00:53:06.595Z,1016.16
2017-11-25T00:54:36.613Z,1016.11
2017-11-25T00:56:00.922Z,1016.07
2017-11-25T00:57:27.968Z,1016.05
2017-11-25T00:58:55.475Z,1016.07
2017-11-25T01:00:22.459Z,1016.04
2017-11-25T01:01:49.783Z,1016.03
2017-11-25T01:03:17.021Z,1016.00
2017-11-25T01:04:44.395Z,1015.98
2017-11-25T01:06:11.721Z,1016.01
2017-11-25T01:07:38.911Z,1016.00
2017-11-25T01:09:06.187Z,1015.99
2017-11-25T01:10:33.503Z,1016.01
2017-11-25T01:12:00.766Z,1016.02
2017-11-25T01:13:28.149Z,1016.05
2017-11-25T01:14:55.344Z,1016.06
2017-11-25T01:16:22.660Z,1016.06
2017-11-25T01:17:50.043Z,1016.04
2017-11-25T01:19:17.370Z,1016.07
2017-11-25T01:20:44.643Z,1016.09
2017-11-25T01:22:11.936Z,1016.14
2017-11-25T01:23:39.267Z,1016.15
2017-11-25T01:25:06.664Z,1016.15
2017-11-25T01:26:33.891Z,1016.13
2017-11-25T01:28:01.015Z,1016.10
2017-11-25T01:29:28.240Z,1016.09
2017-11-25T01:30:55.434Z,1016.10
2017-11-25T01:32:22.778Z,1016.07
2017-11-25T01:33:49.964Z,1016.09
2017-11-25T01:35:17.149Z,1016.03
2017-11-25T01:36:44.434Z,1016.02
2017-11-25T01:38:11.680Z,1016.04
2017-11-25T01:39:39.089Z,1016.02
2017-11-25T01:41:06.501Z,1015.94
2017-11-25T01:42:33.693Z,1015.88
2017-11-25T01:44:00.684Z,1015.79
2017-11-25T01:45:27.858Z,1015.72
2017-11-25T01:46:55.153Z,1015.73
2017-11-25T01:48:22.541Z,1015.70
2017-11-25T01:49:49.825Z,1015.71
2017-11-25T01:51:17.144Z,1015.67
2017-11-25T01:52:44.541Z,1015.70
2017-11-25T01:54:11.781Z,1015.69
2017-11-25T01:55:39.024Z,1015.68
2017-11-25T01:57:06.412Z,1015.67
2017-11-25T01:58:33.706Z,1015.62
2017-11-25T02:00:00.966Z,1015.59
2017-11-25T02:01:28.165Z,1015.60
2017-11-25T02:02:55.508Z,1015.67
2017-11-25T02:04:22.805Z,1015.69
2017-11-25T02:05:50.116Z,1015.70
2017-11-25T02:07:17.485Z,1015.70
2017-11-25T02:08:44.773Z,1015.71
2017-11-25T02:10:12.273Z,1015.70
2017-11-25T02:11:39.545Z,1015.71
2017-11-25T02:13:06.853Z,1015.68
2017-11-25T02:14:34.238Z,1015.66
2017-11-25T02:16:01.471Z,1015.65
2017-11-25T02:17:28.441Z,1015.65
2017-11-25T02:18:55.681Z,1015.64
2017-11-25T02:20:22.928Z,1015.62
2017-11-25T02:21:50.380Z,1015.60
2017-11-25T02:23:17.520Z,1015.60
2017-11-25T02:24:44.873Z,1015.60
2017-11-25T02:26:12.092Z,1015.56
2017-11-25T02:27:39.264Z,1015.56
2017-11-25T02:29:06.626Z,1015.57
2017-11-25T02:30:33.612Z,1015.54
2017-11-25T02:32:00.901Z,1015.46
2017-11-25T02:33:28.072Z,1015.43
2017-11-25T02:34:55.466Z,1015.40
2017-11-25T02:36:22.682Z,1015.35
2017-11-25T02:37:50.077Z,1015.31
2017-11-25T02:39:17.493Z,1015.27
2017-11-25T02:40:44.689Z,1015.27
2017-11-25T02:42:11.913Z,1015.22
2017-11-25T02:43:39.141Z,1015.19
2017-11-25T02:45:06.473Z,1015.20
2017-11-25T02:46:33.724Z,1015.18
2017-11-25T02:48:01.113Z,1015.14
2017-11-25T02:49:28.327Z,1015.13
2017-11-25T02:50:55.758Z,1015.13
2017-11-25T02:52:23.026Z,1015.11
2017-11-25T02:53:50.193Z,1015.09
2017-11-25T02:55:17.568Z,1015.09
2017-11-25T02:56:44.795Z,1015.11
2017-11-25T02:58:12.140Z,1015.07
2017-11-25T02:59:39.420Z,1015.04
2017-11-25T03:01:06.486Z,1015.03
2017-11-25T03:02:33.744Z,1015.00
2017-11-25T03:04:00.984Z,1014.96
2017-11-25T03:05:28.180Z,1014.90
2017-11-25T03:06:55.332Z,1014.89
2017-11-25T03:08:22.540Z,1014.87
2017-11-25T03:09:49.878Z,1014.84
2017-11-25T03:11:17.330Z,1014.82
2017-11-25T03:12:44.513Z,1014.80
2017-11-25T03:14:11.879Z,1014.83
2017-11-25T03:15:39.073Z,1014.85
2017-11-25T03:17:06.349Z,1014.88
2017-11-25T03:18:33.577Z,1014.89
2017-11-25T03:20:00.840Z,1014.89
2017-11-25T03:21:28.142Z,1014.87
2017-11-25T03:22:55.241Z,1014.87
2017-11-25T03:24:22.552Z,1014.90
2017-11-25T03:25:50.032Z,1014.90
2017-11-25T03:27:17.242Z,1014.95
2017-11-25T03:28:44.598Z,1014.97
2017-11-25T03:30:11.868Z,1014.91
2017-11-25T03:31:39.331Z,1014.87
2017-11-25T03:33:06.483Z,1014.87
2017-11-25T03:34:33.830Z,1014.87
2017-11-25T03:36:00.940Z,1014.86
2017-11-25T03:37:28.150Z,1014.85
2017-11-25T03:38:55.554Z,1014.79
2017-11-25T03:40:22.832Z,1014.73
2017-11-25T03:41:50.211Z,1014.66
2017-11-25T03:43:17.530Z,1014.59
2017-11-25T03:44:44.862Z,1014.58
2017-11-25T03:46:12.060Z,1014.57
2017-11-25T03:47:39.270Z,1014.53
2017-11-25T03:49:06.613Z,1014.48
2017-11-25T03:50:33.876Z,1014.45
2017-11-25T03:52:01.055Z,1014.45
2017-11-25T03:53:28.434Z,1014.47
2017-11-25T03:54:55.569Z,1014.50
2017-11-25T03:56:22.931Z,1014.51
2017-11-25T03:57:50.292Z,1014.48
2017-11-25T03:59:17.476Z,1014.47
2017-11-25T04:00:44.586Z,1014.48
2017-11-25T04:02:11.968Z,1014.49
2017-11-25T04:03:39.376Z,1014.45
2017-11-25T04:05:06.317Z,1014.42
2017-11-25T04:06:33.518Z,1014.42
2017-11-25T04:08:00.626Z,1014.39
2017-11-25T04:09:27.527Z,1014.41
2017-11-25T04:10:54.895Z,1014.42
2017-11-25T04:12:22.263Z,1014.40
2017-11-25T04:13:49.552Z,1014.36
2017-11-25T04:15:16.893Z,1014.32
2017-11-25T04:16:44.284Z,1014.36
2017-11-25T04:18:11.350Z,1014.40
2017-11-25T04:19:38.815Z,1014.41
2017-11-25T04:21:06.221Z,1014.44
2017-11-25T04:22:33.448Z,1014.41
2017-11-25T04:24:00.829Z,1014.34
2017-11-25T04:25:28.325Z,1014.31
2017-11-25T04:26:55.538Z,1014.30
2017-11-25T04:28:22.989Z,1014.29
2017-11-25T04:29:50.233Z,1014.31
2017-11-25T04:31:17.547Z,1014.32
2017-11-25T04:32:44.756Z,1014.25
2017-11-25T04:34:12.155Z,1014.24
2017-11-25T04:35:39.503Z,1014.20
2017-11-25T04:37:06.736Z,1014.22
2017-11-25T04:38:33.922Z,1014.24
2017-11-25T04:40:01.152Z,1014.26
2017-11-25T04:41:28.274Z,1014.30
2017-11-25T04:42:55.446Z,1014.29
2017-11-25T04:44:22.939Z,1014.27
2017-11-25T04:45:49.858Z,1014.29
2017-11-25T04:47:17.203Z,1014.29
2017-11-25T04:48:44.398Z,1014.26
2017-11-25T04:50:11.797Z,1014.22
2017-11-25T04:51:39.222Z,1014.19
2017-11-25T04:53:06.460Z,1014.16
2017-11-25T04:54:33.654Z,1014.13
2017-11-25T04:56:00.863Z,1014.08
2017-11-25T04:57:28.028Z,1014.05
2017-11-25T04:58:55.387Z,1014.02
2017-11-25T05:00:22.553Z,1013.99
2017-11-25T05:01:49.967Z,1013.99
2017-11-25T05:03:17.228Z,1013.98
2017-11-25T05:04:44.582Z,1013.95
2017-11-25T05:06:11.661Z,1013.91
2017-11-25T05:07:39.114Z,1013.92
2017-11-25T05:09:06.524Z,1013.96
2017-11-25T05:10:33.676Z,1013.97
2017-11-25T05:12:00.948Z,1013.94
2017-11-25T05:13:28.202Z,1013.92
2017-11-25T05:14:55.496Z,1013.89
2017-11-25T05:16:22.863Z,1013.81
2017-11-25T05:17:50.228Z,1013.76
2017-11-25T05:19:17.458Z,1013.74
2017-11-25T05:20:44.821Z,1013.73
2017-11-25T05:22:12.132Z,1013.72
2017-11-25T05:23:39.419Z,1013.75
2017-11-25T05:25:06.695Z,1013.75
2017-11-25T05:26:34.190Z,1013.72
2017-11-25T05:28:01.581Z,1013.69
2017-11-25T05:29:28.635Z,1013.68
2017-11-25T05:30:56.242Z,1013.69
2017-11-25T05:32:23.100Z,1013.70
2017-11-25T05:33:50.562Z,1013.67
2017-11-25T05:35:17.782Z,1013.64
2017-11-25T05:36:45.264Z,1013.64
2017-11-25T05:38:12.773Z,1013.61
2017-11-25T05:39:39.982Z,1013.55
2017-11-25T05:41:07.337Z,1013.52
2017-11-25T05:42:34.712Z,1013.49
2017-11-25T05:44:01.963Z,1013.47
2017-11-25T05:45:29.211Z,1013.49
2017-11-25T05:46:56.321Z,1013.52
2017-11-25T05:48:23.538Z,1013.53
2017-11-25T05:49:50.839Z,1013.48
2017-11-25T05:51:18.108Z,1013.47
2017-11-25T05:52:45.356Z,1013.48
2017-11-25T05:54:12.735Z,1013.50
2017-11-25T05:55:40.068Z,1013.50
2017-11-25T05:57:07.491Z,1013.49
2017-11-25T05:58:34.611Z,1013.47
2017-11-25T06:00:01.943Z,1013.49
2017-11-25T06:01:29.166Z,1013.52
2017-11-25T06:02:56.227Z,1013.57
2017-11-25T06:04:23.345Z,1013.57
2017-11-25T06:05:50.885Z,1013.53
2017-11-25T06:07:18.007Z,1013.54
2017-11-25T06:08:45.349Z,1013.56
2017-11-25T06:10:12.567Z,1013.54
2017-11-25T06:11:39.816Z,1013.50
2017-11-25T06:13:06.820Z,1013.48
2017-11-25T06:14:34.146Z,1013.46
2017-11-25T06:16:01.310Z,1013.46
2017-11-25T06:17:28.529Z,1013.44
2017-11-25T06:18:55.838Z,1013.42
2017-11-25T06:20:23.090Z,1013.40
2017-11-25T06:21:50.536Z,1013.42
2017-11-25T06:23:18.083Z,1013.44
2017-11-25T06:24:45.124Z,1013.41
2017-11-25T06:26:12.344Z,1013.40
2017-11-25T06:27:39.809Z,1013.40
2017-11-25T06:29:06.980Z,1013.41
2017-11-25T06:30:34.223Z,1013.45
2017-11-25T06:32:01.509Z,1013.38
2017-11-25T06:33:28.820Z,1013.31
2017-11-25T06:34:56.311Z,1013.26
2017-11-25T06:36:23.586Z,1013.27
2017-11-25T06:37:50.833Z,1013.21
2017-11-25T06:39:17.887Z,1013.17
2017-11-25T06:40:45.111Z,1013.20
2017-11-25T06:42:12.366Z,1013.19
2017-11-25T06:43:39.752Z,1013.21
2017-11-25T06:45:07.161Z,1013.15
2017-11-25T06:46:34.305Z,1013.14
2017-11-25T06:48:01.626Z,1013.17
2017-11-25T06:49:28.909Z,1013.24
2017-11-25T06:50:56.384Z,1013.29
2017-11-25T06:52:23.660Z,1013.29
2017-11-25T06:53:51.148Z,1013.27
2017-11-25T06:55:18.518Z,1013.26
2017-11-25T06:56:45.843Z,1013.26
2017-11-25T06:58:13.311Z,1013.26
2017-11-25T06:59:40.602Z,1013.28
2017-11-25T07:01:07.864Z,1013.29
2017-11-25T07:02:35.188Z,1013.29
2017-11-25T07:04:02.397Z,1013.30
2017-11-25T07:05:29.796Z,1013.27
2017-11-25T07:06:56.662Z,1013.23
2017-11-25T07:08:23.841Z,1013.18
2017-11-25T07:09:51.313Z,1013.16
2017-11-25T07:11:18.654Z,1013.14
2017-11-25T07:12:45.959Z,1013.17
2017-11-25T07:14:13.333Z,1013.23
2017-11-25T07:15:40.655Z,1013.26
2017-11-25T07:17:08.096Z,1013.25
2017-11-25T07:18:35.597Z,1013.24
2017-11-25T07:20:02.626Z,1013.23
2017-11-25T07:21:30.043Z,1013.22
2017-11-25T07:22:57.149Z,1013.22
2017-11-25T07:24:24.211Z,1013.16
2017-11-25T07:25:51.340Z,1013.12
2017-11-25T07:27:18.558Z,1013.09
2017-11-25T07:28:45.849Z,1013.04
2017-11-25T07:30:13.237Z,1013.08
2017-11-25T07:31:40.451Z,1013.08
2017-11-25T07:33:07.733Z,1013.09
2017-11-25T07:34:34.855Z,1013.07
2017-11-25T07:36:02.133Z,1013.03
2017-11-25T07:37:29.345Z,1012.99
2017-11-25T07:38:56.565Z,1012.95
2017-11-25T07:40:23.893Z,1013.00
2017-11-25T07:41:51.251Z,1012.97
2017-11-25T07:43:18.684Z,1012.95
2017-11-25T07:44:45.952Z,1012.89
2017-11-25T07:46:13.426Z,1012.89
2017-11-25T07:47:40.500Z,1012.87
2017-11-25T07:49:07.321Z,1012.89
2017-11-25T07:50:34.622Z,1012.86
2017-11-25T07:52:02.023Z,1012.84
2017-11-25T07:53:29.175Z,1012.84
2017-11-25T07:54:56.393Z,1012.86
2017-11-25T07:56:23.674Z,1012.93
2017-11-25T07:57:50.681Z,1012.97
2017-11-25T07:59:17.951Z,1013.01
2017-11-25T08:00:45.344Z,1013.04
2017-11-25T08:02:12.690Z,1013.00
2017-11-25T08:03:39.830Z,1012.94
2017-11-25T08:05:06.974Z,1012.91
2017-11-25T08:06:34.241Z,1012.89
2017-11-25T08:08:01.417Z,1012.92
2017-11-25T08:09:28.590Z,1012.94
2017-11-25T08:10:55.815Z,1012.94
2017-11-25T08:12:22.934Z,1012.90
2017-11-25T08:13:50.349Z,1012.89
2017-11-25T08:15:17.531Z,1012.90
2017-11-25T08:16:44.764Z,1012.97
2017-11-25T08:18:12.096Z,1013.01
2017-11-25T08:19:39.536Z,1013.03
2017-11-25T08:21:06.858Z,1013.01
2017-11-25T08:22:34.218Z,1012.99
2017-11-25T08:24:01.119Z,1012.95
2017-11-25T08:25:28.650Z,1012.93
2017-11-25T08:26:55.821Z,1012.89
2017-11-25T08:28:22.899Z,1012.88
2017-11-25T08:29:50.170Z,1012.87
2017-11-25T08:31:17.600Z,1012.87
2017-11-25T08:32:44.872Z,1012.84
2017-11-25T08:34:12.193Z,1012.84
2017-11-25T08:35:39.655Z,1012.82
2017-11-25T08:37:06.639Z,1012.84
2017-11-25T08:38:33.897Z,1012.82
2017-11-25T08:40:01.180Z,1012.80
2017-11-25T08:41:28.424Z,1012.78
2017-11-25T08:42:55.999Z,1012.81
2017-11-25T08:44:22.847Z,1012.82
2017-11-25T08:45:50.170Z,1012.82
2017-11-25T08:47:17.180Z,1012.86
2017-11-25T08:48:44.597Z,1012.90
2017-11-25T08:50:11.767Z,1012.91
2017-11-25T08:51:38.900Z,1012.89
2017-11-25T08:53:06.187Z,1012.89
2017-11-25T08:54:33.346Z,1012.89
2017-11-25T08:56:00.527Z,1012.87
2017-11-25T08:57:27.761Z,1012.86
2017-11-25T08:58:55.084Z,1012.82
2017-11-25T09:00:22.440Z,1012.80
2017-11-25T09:01:49.417Z,1012.80
2017-11-25T09:03:16.555Z,1012.82
2017-11-25T09:04:43.953Z,1012.85
2017-11-25T09:06:11.240Z,1012.88
2017-11-25T09:07:38.606Z,1012.92
2017-11-25T09:09:05.870Z,1012.97
2017-11-25T09:10:33.016Z,1013.02
2017-11-25T09:12:00.260Z,1013.01
2017-11-25T09:13:27.269Z,1013.01
2017-11-25T09:14:54.494Z,1013.04
2017-11-25T09:16:22.009Z,1013.02
2017-11-25T09:17:49.102Z,1013.05
2017-11-25T09:19:16.502Z,1013.04
2017-11-25T09:20:43.708Z,1013.02
2017-11-25T09:22:10.815Z,1012.99
2017-11-25T09:23:38.185Z,1012.97
2017-11-25T09:25:05.270Z,1012.98
2017-11-25T09:26:32.500Z,1012.96
2017-11-25T09:27:59.580Z,1012.96
2017-11-25T09:29:26.414Z,1012.95
2017-11-25T09:30:53.691Z,1012.97
2017-11-25T09:32:20.788Z,1012.98
2017-11-25T09:33:48.046Z,1013.01
2017-11-25T09:35:15.329Z,1013.02
2017-11-25T09:36:42.416Z,1013.02
2017-11-25T09:38:09.592Z,1013.00
2017-11-25T09:39:36.697Z,1012.97
2017-11-25T09:41:03.877Z,1012.92
2017-11-25T09:42:31.113Z,1012.93
2017-11-25T09:43:58.307Z,1012.92
2017-11-25T09:45:25.601Z,1012.96
2017-11-25T09:46:52.684Z,1012.97
2017-11-25T09:48:20.081Z,1012.96
2017-11-25T09:49:47.433Z,1012.92
2017-11-25T09:51:14.707Z,1012.88
2017-11-25T09:52:42.065Z,1012.84
2017-11-25T09:54:09.349Z,1012.84
2017-11-25T09:55:36.402Z,1012.82
2017-11-25T09:57:03.644Z,1012.81
2017-11-25T09:58:30.848Z,1012.78
2017-11-25T09:59:58.049Z,1012.76
2017-11-25T10:01:25.451Z,1012.76
2017-11-25T10:02:52.911Z,1012.76
2017-11-25T10:04:20.259Z,1012.76
2017-11-25T10:05:47.551Z,1012.73
2017-11-25T10:07:14.902Z,1012.72
2017-11-25T10:08:42.098Z,1012.71
2017-11-25T10:10:09.403Z,1012.68
2017-11-25T10:11:36.641Z,1012.67
2017-11-25T10:13:03.912Z,1012.61
2017-11-25T10:14:31.201Z,1012.61
2017-11-25T10:15:58.344Z,1012.61
2017-11-25T10:17:25.293Z,1012.59
2017-11-25T10:18:52.664Z,1012.61
2017-11-25T10:20:20.036Z,1012.58
2017-11-25T10:21:47.248Z,1012.56
2017-11-25T10:23:14.596Z,1012.54
2017-11-25T10:24:41.875Z,1012.52
2017-11-25T10:26:09.210Z,1012.51
2017-11-25T10:27:36.562Z,1012.50
2017-11-25T10:29:03.743Z,1012.51
2017-11-25T10:30:30.991Z,1012.51
2017-11-25T10:31:58.062Z,1012.54
2017-11-25T10:33:25.330Z,1012.51
2017-11-25T10:34:52.487Z,1012.50
2017-11-25T10:36:19.725Z,1012.50
2017-11-25T10:37:46.882Z,1012.51
2017-11-25T10:39:14.126Z,1012.53
2017-11-25T10:40:41.458Z,1012.55
2017-11-25T10:42:08.809Z,1012.57
2017-11-25T10:43:36.126Z,1012.55
2017-11-25T10:45:03.261Z,1012.52
2017-11-25T10:46:30.406Z,1012.52
2017-11-25T10:47:57.710Z,1012.49
2017-11-25T10:49:24.913Z,1012.48
2017-11-25T10:50:52.127Z,1012.45
2017-11-25T10:52:19.243Z,1012.46
2017-11-25T10:53:46.632Z,1012.44
2017-11-25T10:55:13.944Z,1012.42
2017-11-25T10:56:41.146Z,1012.40
2017-11-25T10:58:08.306Z,1012.39
2017-11-25T10:59:35.487Z,1012.35
2017-11-25T11:01:02.546Z,1012.32
2017-11-25T11:02:29.774Z,1012.34
2017-11-25T11:03:56.757Z,1012.35
2017-11-25T11:05:24.049Z,1012.34
2017-11-25T11:06:51.219Z,1012.31
2017-11-25T11:08:21.357Z,1012.34
2017-11-25T11:09:45.507Z,1012.32
2017-11-25T11:11:12.852Z,1012.30
2017-11-25T11:12:39.856Z,1012.31
2017-11-25T11:14:07.182Z,1012.34
2017-11-25T11:15:34.476Z,1012.39
2017-11-25T11:17:01.798Z,1012.41
2017-11-25T11:18:28.773Z,1012.40
2017-11-25T11:19:56.050Z,1012.39
2017-11-25T11:21:23.221Z,1012.38
2017-11-25T11:22:50.529Z,1012.36
2017-11-25T11:24:17.805Z,1012.36
2017-11-25T11:25:45.074Z,1012.37
2017-11-25T11:27:12.417Z,1012.34
2017-11-25T11:28:39.752Z,1012.29
2017-11-25T11:30:06.964Z,1012.27
2017-11-25T11:31:34.316Z,1012.20
2017-11-25T11:33:01.216Z,1012.19
2017-11-25T11:34:28.434Z,1012.18
2017-11-25T11:35:55.630Z,1012.21
2017-11-25T11:37:22.755Z,1012.24
2017-11-25T11:38:50.041Z,1012.25
2017-11-25T11:40:17.262Z,1012.25
2017-11-25T11:41:44.504Z,1012.25
2017-11-25T11:43:12.061Z,1012.27
2017-11-25T11:44:39.071Z,1012.29
2017-11-25T11:46:06.412Z,1012.30
2017-11-25T11:47:33.538Z,1012.30
2017-11-25T11:49:00.676Z,1012.31
2017-11-25T11:50:27.836Z,1012.30
2017-11-25T11:51:55.219Z,1012.30
2017-11-25T11:53:22.501Z,1012.28
2017-11-25T11:54:49.794Z,1012.28
2017-11-25T11:56:16.992Z,1012.30
2017-11-25T11:57:44.358Z,1012.28
2017-11-25T11:59:11.553Z,1012.27
2017-11-25T12:00:38.979Z,1012.31
2017-11-25T12:02:06.243Z,1012.35
2017-11-25T12:03:33.458Z,1012.37
2017-11-25T12:05:00.732Z,1012.35
2017-11-25T12:06:27.971Z,1012.33
2017-11-25T12:07:55.203Z,1012.29
2017-11-25T12:09:22.240Z,1012.29
2017-11-25T12:10:49.577Z,1012.29
2017-11-25T12:12:16.950Z,1012.30
2017-11-25T12:13:44.324Z,1012.30
2017-11-25T12:15:11.340Z,1012.25
2017-11-25T12:16:38.610Z,1012.22
2017-11-25T12:18:06.028Z,1012.16
2017-11-25T12:19:33.150Z,1012.11
2017-11-25T12:21:00.340Z,1012.11
2017-11-25T12:22:27.547Z,1012.13
2017-11-25T12:23:54.811Z,1012.15
2017-11-25T12:25:22.181Z,1012.20
2017-11-25T12:26:49.191Z,1012.20
2017-11-25T12:28:16.338Z,1012.19
2017-11-25T12:29:43.544Z,1012.18
2017-11-25T12:31:10.973Z,1012.16
2017-11-25T12:32:38.002Z,1012.12
2017-11-25T12:34:05.281Z,1012.09
2017-11-25T12:35:32.408Z,1012.07
2017-11-25T12:36:59.616Z,1012.09
2017-11-25T12:38:26.633Z,1012.13
2017-11-25T12:39:53.946Z,1012.15
2017-11-25T12:41:21.122Z,1012.18
2017-11-25T12:42:48.520Z,1012.18
2017-11-25T12:44:15.824Z,1012.18
2017-11-25T12:45:43.118Z,1012.17
2017-11-25T12:47:10.535Z,1012.15
2017-11-25T12:48:37.609Z,1012.09
2017-11-25T12:50:04.743Z,1012.09
2017-11-25T12:51:32.132Z,1012.12
2017-11-25T12:52:59.328Z,1012.13
2017-11-25T12:54:26.494Z,1012.14
2017-11-25T12:55:53.874Z,1012.15
2017-11-25T12:57:20.968Z,1012.16
2017-11-25T12:58:48.135Z,1012.17
2017-11-25T13:00:15.577Z,1012.18
2017-11-25T13:01:42.752Z,1012.15
2017-11-25T13:03:09.979Z,1012.12
2017-11-25T13:04:37.228Z,1012.17
2017-11-25T13:06:04.430Z,1012.19
2017-11-25T13:07:31.681Z,1012.18
2017-11-25T13:08:59.100Z,1012.17
2017-11-25T13:10:26.371Z,1012.19
2017-11-25T13:11:53.743Z,1012.20
2017-11-25T13:13:21.018Z,1012.24
2017-11-25T13:14:48.301Z,1012.26
2017-11-25T13:16:15.572Z,1012.23
2017-11-25T13:17:42.666Z,1012.19
2017-11-25T13:19:09.988Z,1012.21
2017-11-25T13:20:37.351Z,1012.24
2017-11-25T13:22:04.671Z,1012.26
2017-11-25T13:23:31.899Z,1012.26
2017-11-25T13:24:59.050Z,1012.27
2017-11-25T13:26:26.554Z,1012.28
2017-11-25T13:27:53.950Z,1012.26
2017-11-25T13:29:21.310Z,1012.25
2017-11-25T13:30:48.707Z,1012.27
2017-11-25T13:32:15.816Z,1012.30
2017-11-25T13:33:43.284Z,1012.33
2017-11-25T13:35:10.483Z,1012.31
2017-11-25T13:36:37.874Z,1012.34
2017-11-25T13:38:05.156Z,1012.41
2017-11-25T13:39:32.435Z,1012.45
2017-11-25T13:40:59.583Z,1012.51
2017-11-25T13:42:26.609Z,1012.56
2017-11-25T13:43:53.807Z,1012.55
2017-11-25T13:45:21.167Z,1012.55
2017-11-25T13:46:48.265Z,1012.53
2017-11-25T13:48:15.506Z,1012.56
2017-11-25T13:49:42.638Z,1012.55
2017-11-25T13:51:10.073Z,1012.54
2017-11-25T13:52:37.363Z,1012.49
2017-11-25T13:54:04.708Z,1012.51
2017-11-25T13:55:31.954Z,1012.55
2017-11-25T13:56:59.020Z,1012.59
2017-11-25T13:58:26.333Z,1012.60
2017-11-25T13:59:53.522Z,1012.60
2017-11-25T14:01:20.646Z,1012.63
2017-11-25T14:02:48.047Z,1012.65
2017-11-25T14:04:15.218Z,1012.68
2017-11-25T14:05:42.398Z,1012.70
2017-11-25T14:07:09.675Z,1012.73
2017-11-25T14:08:37.016Z,1012.72
2017-11-25T14:10:04.249Z,1012.71
2017-11-25T14:11:31.504Z,1012.71
2017-11-25T14:12:58.615Z,1012.72
2017-11-25T14:14:25.962Z,1012.71
2017-11-25T14:15:53.273Z,1012.70
2017-11-25T14:17:20.398Z,1012.70
2017-11-25T14:18:47.801Z,1012.73
2017-11-25T14:20:14.930Z,1012.72
2017-11-25T14:21:42.263Z,1012.73
2017-11-25T14:23:09.588Z,1012.71
2017-11-25T14:24:36.728Z,1012.70
2017-11-25T14:26:04.130Z,1012.66
2017-11-25T14:27:31.343Z,1012.58
2017-11-25T14:28:58.800Z,1012.56
2017-11-25T14:30:26.087Z,1012.53
2017-11-25T14:31:53.130Z,1012.52
2017-11-25T14:33:20.625Z,1012.54
2017-11-25T14:34:47.716Z,1012.55
2017-11-25T14:36:14.988Z,1012.57
2017-11-25T14:37:42.504Z,1012.59
2017-11-25T14:39:09.712Z,1012.58
2017-11-25T14:40:37.087Z,1012.56
2017-11-25T14:42:04.166Z,1012.58
2017-11-25T14:43:31.373Z,1012.61
2017-11-25T14:44:58.345Z,1012.61
2017-11-25T14:46:25.823Z,1012.58
2017-11-25T14:47:53.078Z,1012.54
2017-11-25T14:49:20.206Z,1012.53
2017-11-25T14:50:47.388Z,1012.55
2017-11-25T14:52:14.648Z,1012.52
2017-11-25T14:53:42.013Z,1012.52
2017-11-25T14:55:09.209Z,1012.48
2017-11-25T14:56:36.176Z,1012.44
2017-11-25T14:58:03.381Z,1012.39
2017-11-25T14:59:30.638Z,1012.36
2017-11-25T15:00:57.982Z,1012.38
2017-11-25T15:02:25.309Z,1012.38
2017-11-25T15:03:52.733Z,1012.43
2017-11-25T15:05:19.720Z,1012.43
2017-11-25T15:06:47.218Z,1012.44
2017-11-25T15:08:14.605Z,1012.45
2017-11-25T15:09:41.745Z,1012.46
2017-11-25T15:11:08.831Z,1012.46
2017-11-25T15:12:36.177Z,1012.46
2017-11-25T15:14:03.444Z,1012.46
2017-11-25T15:15:30.719Z,1012.47
2017-11-25T15:16:57.910Z,1012.48
2017-11-25T15:18:25.333Z,1012.47
2017-11-25T15:19:52.538Z,1012.44
2017-11-25T15:21:19.838Z,1012.44
2017-11-25T15:22:47.230Z,1012.42
2017-11-25T15:24:14.577Z,1012.42
2017-11-25T15:25:41.565Z,1012.43
2017-11-25T15:27:08.988Z,1012.53
2017-11-25T15:28:36.322Z,1012.58
2017-11-25T15:30:03.656Z,1012.54
2017-11-25T15:31:30.790Z,1012.57
2017-11-25T15:32:57.855Z,1012.61
2017-11-25T15:34:25.009Z,1012.63
2017-11-25T15:35:52.275Z,1012.63
2017-11-25T15:37:19.670Z,1012.67
2017-11-25T15:38:47.112Z,1012.71
2017-11-25T15:40:14.351Z,1012.74
2017-11-25T15:41:41.510Z,1012.76
2017-11-25T15:43:08.886Z,1012.76
2017-11-25T15:44:36.208Z,1012.75
2017-11-25T15:46:03.343Z,1012.73
2017-11-25T15:47:30.631Z,1012.75
2017-11-25T15:48:57.835Z,1012.78
2017-11-25T15:50:25.143Z,1012.79
2017-11-25T15:51:52.580Z,1012.81
2017-11-25T15:53:19.916Z,1012.83
2017-11-25T15:54:47.217Z,1012.90
2017-11-25T15:56:14.644Z,1012.94
2017-11-25T15:57:41.846Z,1012.93
2017-11-25T15:59:09.011Z,1012.93
2017-11-25T16:00:36.134Z,1012.92
2017-11-25T16:02:03.335Z,1012.90
2017-11-25T16:03:30.596Z,1012.92
2017-11-25T16:04:57.756Z,1012.93
2017-11-25T16:06:25.263Z,1012.94
2017-11-25T16:07:52.371Z,1012.96
2017-11-25T16:09:19.505Z,1012.98
2017-11-25T16:10:46.817Z,1012.98
2017-11-25T16:12:14.135Z,1012.99
2017-11-25T16:13:41.311Z,1013.01
2017-11-25T16:15:08.608Z,1013.06
2017-11-25T16:16:35.692Z,1013.09
2017-11-25T16:18:03.073Z,1013.13
2017-11-25T16:19:30.370Z,1013.17
2017-11-25T16:20:57.556Z,1013.16
2017-11-25T16:22:24.812Z,1013.13
2017-11-25T16:23:52.092Z,1013.14
2017-11-25T16:25:19.317Z,1013.13
2017-11-25T16:26:46.544Z,1013.16
2017-11-25T16:28:13.860Z,1013.19
2017-11-25T16:29:41.236Z,1013.20
2017-11-25T16:31:08.450Z,1013.22
2017-11-25T16:32:35.723Z,1013.22
2017-11-25T16:34:02.733Z,1013.23
2017-11-25T16:35:29.998Z,1013.25
2017-11-25T16:36:57.023Z,1013.27
2017-11-25T16:38:24.396Z,1013.29
2017-11-25T16:39:51.424Z,1013.32
2017-11-25T16:41:18.788Z,1013.35
2017-11-25T16:42:46.054Z,1013.32
2017-11-25T16:44:13.173Z,1013.31
2017-11-25T16:45:40.562Z,1013.31
2017-11-25T16:47:07.733Z,1013.31
2017-11-25T16:48:34.552Z,1013.34
2017-11-25T16:50:01.774Z,1013.38
2017-11-25T16:51:28.886Z,1013.38
2017-11-25T16:52:56.082Z,1013.40
2017-11-25T16:54:23.186Z,1013.44
2017-11-25T16:55:50.379Z,1013.48
2017-11-25T16:57:17.671Z,1013.47
2017-11-25T16:58:44.801Z,1013.49
2017-11-25T17:00:12.264Z,1013.50
2017-11-25T17:01:39.417Z,1013.50
2017-11-25T17:03:06.806Z,1013.50
2017-11-25T17:04:34.099Z,1013.54
2017-11-25T17:06:01.238Z,1013.56
2017-11-25T17:07:28.371Z,1013.57
2017-11-25T17:08:55.594Z,1013.58
2017-11-25T17:10:22.910Z,1013.57
2017-11-25T17:11:50.166Z,1013.56
2017-11-25T17:13:17.358Z,1013.55
2017-11-25T17:14:44.726Z,1013.55
2017-11-25T17:16:12.063Z,1013.54
2017-11-25T17:17:39.333Z,1013.52
2017-11-25T17:19:06.676Z,1013.56
2017-11-25T17:20:33.876Z,1013.56
2017-11-25T17:22:01.076Z,1013.57
2017-11-25T17:23:28.141Z,1013.57
2017-11-25T17:24:55.542Z,1013.57
2017-11-25T17:26:22.820Z,1013.57
2017-11-25T17:27:50.109Z,1013.55
2017-11-25T17:29:17.429Z,1013.54
2017-11-25T17:30:44.564Z,1013.52
2017-11-25T17:32:11.937Z,1013.51
2017-11-25T17:33:39.103Z,1013.48
2017-11-25T17:35:06.271Z,1013.49